sensor_id;sensor_type;location;lat;lon;timestamp;pressure;altitude;pressure_sealevel;temperature;humidity
12203;BME280;6164;42.178;24.622;2023-03-19T00:00:21;100264.09;;;1.71;100.00
12203;BME280;6164;42.178;24.622;2023-03-19T00:02:47;100264.19;;;1.69;100.00
12203;BME280;6164;42.178;24.622;2023-03-19T00:05:16;100270.22;;;1.70;100.00
12203;BME280;6164;42.178;24.622;2023-03-19T00:07:43;100270.13;;;1.71;100.00
12203;BME280;6164;42.178;24.622;2023-03-19T00:10:09;100266.38;;;1.75;100.00
12203;BME280;6164;42.178;24.622;2023-03-19T00:12:37;100270.03;;;1.73;100.00
12203;BME280;6164;42.178;24.622;2023-03-19T00:15:05;100266.69;;;1.71;100.00
12203;BME280;6164;42.178;24.622;2023-03-19T00:17:33;100261.13;;;1.63;100.00
12203;BME280;6164;42.178;24.622;2023-03-19T00:19:59;100258.44;;;1.64;100.00
12203;BME280;6164;42.178;24.622;2023-03-19T00:22:26;100254.22;;;1.62;100.00
12203;BME280;6164;42.178;24.622;2023-03-19T00:24:52;100250.31;;;1.69;100.00
12203;BME280;6164;42.178;24.622;2023-03-19T00:27:19;100252.53;;;1.75;100.00
12203;BME280;6164;42.178;24.622;2023-03-19T00:29:47;100254.22;;;1.76;100.00
12203;BME280;6164;42.178;24.622;2023-03-19T00:32:14;100246.56;;;1.87;100.00
12203;BME280;6164;42.178;24.622;2023-03-19T00:34:40;100243.47;;;1.94;100.00
12203;BME280;6164;42.178;24.622;2023-03-19T00:37:07;100243.47;;;1.94;100.00
12203;BME280;6164;42.178;24.622;2023-03-19T00:39:34;100235.84;;;1.91;100.00
12203;BME280;6164;42.178;24.622;2023-03-19T00:42:00;100240.56;;;1.99;100.00
12203;BME280;6164;42.178;24.622;2023-03-19T00:44:27;100237.13;;;1.98;100.00
12203;BME280;6164;42.178;24.622;2023-03-19T00:46:55;100231.63;;;2.03;100.00
12203;BME280;6164;42.178;24.622;2023-03-19T00:49:21;100238.19;;;1.82;100.00
12203;BME280;6164;42.178;24.622;2023-03-19T00:51:48;100230.56;;;1.93;100.00
12203;BME280;6164;42.178;24.622;2023-03-19T00:54:14;100230.09;;;1.86;100.00
12203;BME280;6164;42.178;24.622;2023-03-19T00:56:41;100227.84;;;1.68;100.00
12203;BME280;6164;42.178;24.622;2023-03-19T00:59:07;100225.03;;;1.71;100.00
12203;BME280;6164;42.178;24.622;2023-03-19T01:01:34;100228.41;;;1.59;100.00
12203;BME280;6164;42.178;24.622;2023-03-19T01:04:01;100219.50;;;1.49;100.00
12203;BME280;6164;42.178;24.622;2023-03-19T01:06:28;100218.78;;;1.47;100.00
12203;BME280;6164;42.178;24.622;2023-03-19T01:08:54;100202.53;;;1.43;100.00
12203;BME280;6164;42.178;24.622;2023-03-19T01:11:21;100205.13;;;1.43;100.00
12203;BME280;6164;42.178;24.622;2023-03-19T01:13:47;100209.69;;;1.40;100.00
12203;BME280;6164;42.178;24.622;2023-03-19T01:16:14;100216.75;;;1.38;100.00
12203;BME280;6164;42.178;24.622;2023-03-19T01:18:40;100211.28;;;1.28;100.00
12203;BME280;6164;42.178;24.622;2023-03-19T01:21:08;100214.09;;;1.25;100.00
12203;BME280;6164;42.178;24.622;2023-03-19T01:23:35;100207.59;;;1.18;100.00
12203;BME280;6164;42.178;24.622;2023-03-19T01:26:01;100206.38;;;1.09;100.00
12203;BME280;6164;42.178;24.622;2023-03-19T01:28:27;100206.75;;;1.03;100.00
12203;BME280;6164;42.178;24.622;2023-03-19T01:30:57;100208.31;;;1.06;100.00
12203;BME280;6164;42.178;24.622;2023-03-19T01:33:24;100205.44;;;1.10;100.00
12203;BME280;6164;42.178;24.622;2023-03-19T01:35:50;100203.88;;;1.08;100.00
12203;BME280;6164;42.178;24.622;2023-03-19T01:38:18;100207.22;;;1.10;100.00
12203;BME280;6164;42.178;24.622;2023-03-19T01:40:46;100215.94;;;1.09;100.00
12203;BME280;6164;42.178;24.622;2023-03-19T01:43:14;100218.28;;;1.13;100.00
12203;BME280;6164;42.178;24.622;2023-03-19T01:45:41;100217.53;;;1.11;100.00
12203;BME280;6164;42.178;24.622;2023-03-19T01:48:11;100220.88;;;1.13;100.00
12203;BME280;6164;42.178;24.622;2023-03-19T01:50:42;100214.72;;;1.14;100.00
12203;BME280;6164;42.178;24.622;2023-03-19T01:53:09;100213.53;;;1.20;100.00
12203;BME280;6164;42.178;24.622;2023-03-19T01:55:38;100215.00;;;1.24;100.00
12203;BME280;6164;42.178;24.622;2023-03-19T01:58:05;100212.75;;;1.32;100.00
12203;BME280;6164;42.178;24.622;2023-03-19T02:00:33;100211.84;;;1.33;100.00
12203;BME280;6164;42.178;24.622;2023-03-19T02:03:00;100217.41;;;1.41;100.00
12203;BME280;6164;42.178;24.622;2023-03-19T02:05:27;100207.09;;;1.40;100.00
12203;BME280;6164;42.178;24.622;2023-03-19T02:07:55;100220.91;;;1.40;100.00
12203;BME280;6164;42.178;24.622;2023-03-19T02:10:21;100224.00;;;1.47;100.00
12203;BME280;6164;42.178;24.622;2023-03-19T02:12:50;100224.72;;;1.49;100.00
12203;BME280;6164;42.178;24.622;2023-03-19T02:15:16;100220.44;;;1.48;100.00
12203;BME280;6164;42.178;24.622;2023-03-19T02:17:43;100221.09;;;1.51;100.00
12203;BME280;6164;42.178;24.622;2023-03-19T02:20:12;100223.16;;;1.46;100.00
12203;BME280;6164;42.178;24.622;2023-03-19T02:22:42;100231.25;;;1.42;100.00
12203;BME280;6164;42.178;24.622;2023-03-19T02:25:14;100232.25;;;1.39;100.00
12203;BME280;6164;42.178;24.622;2023-03-19T02:27:43;100237.94;;;1.31;100.00
12203;BME280;6164;42.178;24.622;2023-03-19T02:30:17;100231.25;;;1.27;100.00
12203;BME280;6164;42.178;24.622;2023-03-19T02:32:43;100237.41;;;1.26;100.00
12203;BME280;6164;42.178;24.622;2023-03-19T02:35:10;100235.59;;;1.27;100.00
12203;BME280;6164;42.178;24.622;2023-03-19T02:37:37;100233.00;;;1.27;100.00
12203;BME280;6164;42.178;24.622;2023-03-19T02:40:05;100241.66;;;1.27;100.00
12203;BME280;6164;42.178;24.622;2023-03-19T02:42:33;100243.16;;;1.31;100.00
12203;BME280;6164;42.178;24.622;2023-03-19T02:45:01;100245.00;;;1.29;100.00
12203;BME280;6164;42.178;24.622;2023-03-19T02:47:27;100234.69;;;1.28;100.00
12203;BME280;6164;42.178;24.622;2023-03-19T02:49:54;100234.03;;;1.24;100.00
12203;BME280;6164;42.178;24.622;2023-03-19T02:52:20;100234.03;;;1.24;100.00
12203;BME280;6164;42.178;24.622;2023-03-19T02:54:47;100231.53;;;1.23;100.00
12203;BME280;6164;42.178;24.622;2023-03-19T02:57:13;100235.91;;;1.22;100.00
12203;BME280;6164;42.178;24.622;2023-03-19T02:59:40;100244.44;;;1.24;100.00
12203;BME280;6164;42.178;24.622;2023-03-19T03:02:08;100246.66;;;1.30;100.00
12203;BME280;6164;42.178;24.622;2023-03-19T03:04:35;100249.81;;;1.35;100.00
12203;BME280;6164;42.178;24.622;2023-03-19T03:07:02;100250.66;;;1.36;100.00
12203;BME280;6164;42.178;24.622;2023-03-19T03:09:29;100253.47;;;1.33;100.00
12203;BME280;6164;42.178;24.622;2023-03-19T03:11:56;100250.91;;;1.46;100.00
12203;BME280;6164;42.178;24.622;2023-03-19T03:14:22;100250.28;;;1.42;100.00
12203;BME280;6164;42.178;24.622;2023-03-19T03:16:49;100251.38;;;1.52;100.00
12203;BME280;6164;42.178;24.622;2023-03-19T03:19:17;100252.22;;;1.53;100.00
12203;BME280;6164;42.178;24.622;2023-03-19T03:21:43;100251.72;;;1.60;100.00
12203;BME280;6164;42.178;24.622;2023-03-19T03:24:10;100252.00;;;1.70;100.00
12203;BME280;6164;42.178;24.622;2023-03-19T03:26:36;100251.50;;;1.77;100.00
12203;BME280;6164;42.178;24.622;2023-03-19T03:29:03;100254.25;;;1.88;100.00
12203;BME280;6164;42.178;24.622;2023-03-19T03:31:30;100257.47;;;2.06;100.00
12203;BME280;6164;42.178;24.622;2023-03-19T03:33:56;100258.94;;;2.10;100.00
12203;BME280;6164;42.178;24.622;2023-03-19T03:36:24;100251.97;;;2.10;100.00
12203;BME280;6164;42.178;24.622;2023-03-19T03:38:51;100249.13;;;2.01;100.00
12203;BME280;6164;42.178;24.622;2023-03-19T03:41:18;100253.78;;;1.96;100.00
12203;BME280;6164;42.178;24.622;2023-03-19T03:43:44;100251.47;;;1.91;100.00
12203;BME280;6164;42.178;24.622;2023-03-19T03:46:11;100251.97;;;1.84;100.00
12203;BME280;6164;42.178;24.622;2023-03-19T03:48:37;100258.47;;;1.77;100.00
12203;BME280;6164;42.178;24.622;2023-03-19T03:51:04;100260.63;;;1.70;100.00
12203;BME280;6164;42.178;24.622;2023-03-19T03:53:32;100261.38;;;1.72;100.00
12203;BME280;6164;42.178;24.622;2023-03-19T03:55:59;100264.09;;;1.71;100.00
12203;BME280;6164;42.178;24.622;2023-03-19T03:58:26;100267.09;;;1.65;100.00
12203;BME280;6164;42.178;24.622;2023-03-19T04:00:53;100267.91;;;1.65;100.00
12203;BME280;6164;42.178;24.622;2023-03-19T04:03:20;100268.63;;;1.67;100.00
12203;BME280;6164;42.178;24.622;2023-03-19T04:05:48;100262.88;;;1.62;100.00
12203;BME280;6164;42.178;24.622;2023-03-19T04:08:14;100271.91;;;1.57;100.00
12203;BME280;6164;42.178;24.622;2023-03-19T04:10:42;100271.28;;;1.53;100.00
12203;BME280;6164;42.178;24.622;2023-03-19T04:13:09;100270.34;;;1.54;100.00
12203;BME280;6164;42.178;24.622;2023-03-19T04:15:36;100267.84;;;1.53;100.00
12203;BME280;6164;42.178;24.622;2023-03-19T04:18:02;100266.13;;;1.66;100.00
12203;BME280;6164;42.178;24.622;2023-03-19T04:20:29;100268.63;;;1.81;100.00
12203;BME280;6164;42.178;24.622;2023-03-19T04:22:56;100280.72;;;2.09;100.00
12203;BME280;6164;42.178;24.622;2023-03-19T04:25:22;100277.66;;;2.29;97.54
12203;BME280;6164;42.178;24.622;2023-03-19T04:27:50;100275.09;;;2.41;96.44
12203;BME280;6164;42.178;24.622;2023-03-19T04:30:17;100277.81;;;2.52;94.81
12203;BME280;6164;42.178;24.622;2023-03-19T04:32:44;100277.38;;;2.46;94.45
12203;BME280;6164;42.178;24.622;2023-03-19T04:35:10;100279.19;;;2.45;94.56
12203;BME280;6164;42.178;24.622;2023-03-19T04:37:37;100285.44;;;2.55;93.84
12203;BME280;6164;42.178;24.622;2023-03-19T04:40:04;100290.09;;;2.50;93.10
12203;BME280;6164;42.178;24.622;2023-03-19T04:42:30;100292.75;;;2.63;92.57
12203;BME280;6164;42.178;24.622;2023-03-19T04:44:58;100288.06;;;2.68;91.72
12203;BME280;6164;42.178;24.622;2023-03-19T04:47:25;100294.25;;;2.80;91.31
12203;BME280;6164;42.178;24.622;2023-03-19T04:49:51;100282.75;;;2.82;90.56
12203;BME280;6164;42.178;24.622;2023-03-19T04:52:18;100282.75;;;2.82;90.48
12203;BME280;6164;42.178;24.622;2023-03-19T04:54:44;100287.06;;;2.83;90.13
12203;BME280;6164;42.178;24.622;2023-03-19T04:57:11;100286.09;;;2.84;90.99
12203;BME280;6164;42.178;24.622;2023-03-19T04:59:37;100293.81;;;2.86;90.87
12203;BME280;6164;42.178;24.622;2023-03-19T05:02:05;100290.25;;;2.74;90.77
12203;BME280;6164;42.178;24.622;2023-03-19T05:04:32;100294.84;;;2.70;90.51
12203;BME280;6164;42.178;24.622;2023-03-19T05:06:58;100296.72;;;2.68;90.62
12203;BME280;6164;42.178;24.622;2023-03-19T05:09:25;100296.69;;;2.56;91.21
12203;BME280;6164;42.178;24.622;2023-03-19T05:11:52;100295.94;;;2.41;92.88
12203;BME280;6164;42.178;24.622;2023-03-19T05:14:20;100294.22;;;2.28;94.45
12203;BME280;6164;42.178;24.622;2023-03-19T05:16:47;100300.72;;;2.08;96.10
12203;BME280;6164;42.178;24.622;2023-03-19T05:19:15;100310.91;;;2.11;97.91
12203;BME280;6164;42.178;24.622;2023-03-19T05:21:41;100303.22;;;2.10;97.27
12203;BME280;6164;42.178;24.622;2023-03-19T05:24:08;100300.81;;;2.07;97.29
12203;BME280;6164;42.178;24.622;2023-03-19T05:26:35;100302.75;;;2.03;96.14
12203;BME280;6164;42.178;24.622;2023-03-19T05:29:01;100308.16;;;2.00;95.64
12203;BME280;6164;42.178;24.622;2023-03-19T05:31:29;100301.47;;;1.96;96.08
12203;BME280;6164;42.178;24.622;2023-03-19T05:33:55;100302.72;;;1.91;95.87
12203;BME280;6164;42.178;24.622;2023-03-19T05:36:23;100302.91;;;1.88;96.20
12203;BME280;6164;42.178;24.622;2023-03-19T05:38:50;100312.69;;;1.84;96.59
12203;BME280;6164;42.178;24.622;2023-03-19T05:41:16;100315.63;;;1.92;97.54
12203;BME280;6164;42.178;24.622;2023-03-19T05:43:43;100318.69;;;1.99;96.89
12203;BME280;6164;42.178;24.622;2023-03-19T05:46:09;100315.78;;;2.03;97.13
12203;BME280;6164;42.178;24.622;2023-03-19T05:48:36;100324.75;;;1.99;96.91
12203;BME280;6164;42.178;24.622;2023-03-19T05:51:03;100316.94;;;1.99;98.45
12203;BME280;6164;42.178;24.622;2023-03-19T05:53:31;100319.59;;;1.98;99.34
12203;BME280;6164;42.178;24.622;2023-03-19T05:55:58;100323.25;;;1.95;100.00
12203;BME280;6164;42.178;24.622;2023-03-19T05:58:24;100318.03;;;1.95;100.00
12203;BME280;6164;42.178;24.622;2023-03-19T06:00:53;100316.00;;;2.00;100.00
12203;BME280;6164;42.178;24.622;2023-03-19T06:03:20;100312.34;;;2.03;100.00
12203;BME280;6164;42.178;24.622;2023-03-19T06:05:47;100313.44;;;2.13;100.00
12203;BME280;6164;42.178;24.622;2023-03-19T06:08:14;100311.88;;;2.37;100.00
12203;BME280;6164;42.178;24.622;2023-03-19T06:10:41;100310.06;;;2.64;100.00
12203;BME280;6164;42.178;24.622;2023-03-19T06:13:08;100316.56;;;2.84;100.00
12203;BME280;6164;42.178;24.622;2023-03-19T06:15:34;100317.53;;;3.08;100.00
12203;BME280;6164;42.178;24.622;2023-03-19T06:18:01;100323.78;;;3.30;100.00
12203;BME280;6164;42.178;24.622;2023-03-19T06:20:27;100327.84;;;3.47;100.00
12203;BME280;6164;42.178;24.622;2023-03-19T06:22:54;100332.31;;;3.70;100.00
12203;BME280;6164;42.178;24.622;2023-03-19T06:25:21;100329.97;;;3.90;99.70
12203;BME280;6164;42.178;24.622;2023-03-19T06:27:48;100335.56;;;4.10;97.99
12203;BME280;6164;42.178;24.622;2023-03-19T06:30:15;100333.41;;;4.27;96.83
12203;BME280;6164;42.178;24.622;2023-03-19T06:32:42;100340.06;;;4.55;95.34
12203;BME280;6164;42.178;24.622;2023-03-19T06:35:08;100345.03;;;4.70;94.53
12203;BME280;6164;42.178;24.622;2023-03-19T06:37:35;100343.81;;;4.98;93.64
12203;BME280;6164;42.178;24.622;2023-03-19T06:40:02;100346.13;;;5.13;92.72
12203;BME280;6164;42.178;24.622;2023-03-19T06:42:29;100343.75;;;5.32;90.17
12203;BME280;6164;42.178;24.622;2023-03-19T06:44:57;100336.19;;;5.52;88.08
12203;BME280;6164;42.178;24.622;2023-03-19T06:47:23;100337.50;;;5.68;87.12
12203;BME280;6164;42.178;24.622;2023-03-19T06:49:50;100338.19;;;5.81;85.22
12203;BME280;6164;42.178;24.622;2023-03-19T06:52:16;100343.69;;;6.00;83.32
12203;BME280;6164;42.178;24.622;2023-03-19T06:54:43;100337.59;;;6.11;81.32
12203;BME280;6164;42.178;24.622;2023-03-19T06:57:09;100343.41;;;6.25;80.72
12203;BME280;6164;42.178;24.622;2023-03-19T06:59:36;100338.09;;;6.47;80.22
12203;BME280;6164;42.178;24.622;2023-03-19T07:02:03;100345.59;;;6.52;78.57
12203;BME280;6164;42.178;24.622;2023-03-19T07:04:30;100342.47;;;6.58;77.66
12203;BME280;6164;42.178;24.622;2023-03-19T07:06:56;100340.00;;;6.77;77.05
12203;BME280;6164;42.178;24.622;2023-03-19T07:09:23;100341.88;;;6.86;76.56
12203;BME280;6164;42.178;24.622;2023-03-19T07:11:49;100346.00;;;7.00;75.80
12203;BME280;6164;42.178;24.622;2023-03-19T07:14:16;100349.88;;;7.05;74.41
12203;BME280;6164;42.178;24.622;2023-03-19T07:16:42;100350.88;;;7.25;74.19
12203;BME280;6164;42.178;24.622;2023-03-19T07:19:10;100345.66;;;7.34;73.29
12203;BME280;6164;42.178;24.622;2023-03-19T07:21:36;100330.41;;;7.49;74.12
12203;BME280;6164;42.178;24.622;2023-03-19T07:24:03;100330.63;;;7.76;72.40
12203;BME280;6164;42.178;24.622;2023-03-19T07:26:30;100346.78;;;7.92;71.84
12203;BME280;6164;42.178;24.622;2023-03-19T07:28:56;100334.22;;;8.05;69.95
12203;BME280;6164;42.178;24.622;2023-03-19T07:31:23;100326.25;;;8.26;69.69
12203;BME280;6164;42.178;24.622;2023-03-19T07:33:49;100333.50;;;8.52;69.27
12203;BME280;6164;42.178;24.622;2023-03-19T07:36:17;100340.84;;;8.77;67.81
12203;BME280;6164;42.178;24.622;2023-03-19T07:38:45;100364.81;;;8.93;65.20
12203;BME280;6164;42.178;24.622;2023-03-19T07:41:11;100354.94;;;9.14;65.63
12203;BME280;6164;42.178;24.622;2023-03-19T07:43:38;100371.84;;;9.31;64.29
12203;BME280;6164;42.178;24.622;2023-03-19T07:46:05;100351.16;;;9.46;65.70
12203;BME280;6164;42.178;24.622;2023-03-19T07:48:31;100372.59;;;9.70;64.24
12203;BME280;6164;42.178;24.622;2023-03-19T07:50:58;100396.53;;;9.86;62.29
12203;BME280;6164;42.178;24.622;2023-03-19T07:53:26;100405.69;;;9.91;61.33
12203;BME280;6164;42.178;24.622;2023-03-19T07:55:53;100425.63;;;10.03;59.81
12203;BME280;6164;42.178;24.622;2023-03-19T07:58:19;100428.13;;;10.14;58.86
12203;BME280;6164;42.178;24.622;2023-03-19T08:00:46;100437.25;;;10.29;58.55
12203;BME280;6164;42.178;24.622;2023-03-19T08:03:12;100434.94;;;10.44;58.60
12203;BME280;6164;42.178;24.622;2023-03-19T08:05:40;100448.63;;;10.57;56.76
12203;BME280;6164;42.178;24.622;2023-03-19T08:08:06;100438.94;;;10.75;57.58
12203;BME280;6164;42.178;24.622;2023-03-19T08:10:34;100455.09;;;10.90;57.03
12203;BME280;6164;42.178;24.622;2023-03-19T08:13:01;100462.94;;;10.99;55.74
12203;BME280;6164;42.178;24.622;2023-03-19T08:15:29;100468.09;;;11.18;55.81
12203;BME280;6164;42.178;24.622;2023-03-19T08:17:59;100507.13;;;11.24;53.40
12203;BME280;6164;42.178;24.622;2023-03-19T08:20:25;100500.97;;;11.33;53.50
12203;BME280;6164;42.178;24.622;2023-03-19T08:22:52;100509.19;;;11.48;53.39
12203;BME280;6164;42.178;24.622;2023-03-19T08:25:18;100494.53;;;11.71;54.13
12203;BME280;6164;42.178;24.622;2023-03-19T08:27:47;100529.47;;;11.74;51.99
12203;BME280;6164;42.178;24.622;2023-03-19T08:30:14;100531.91;;;11.93;51.66
12203;BME280;6164;42.178;24.622;2023-03-19T08:32:40;100527.19;;;12.05;51.66
12203;BME280;6164;42.178;24.622;2023-03-19T08:35:09;100564.41;;;12.04;50.04
12203;BME280;6164;42.178;24.622;2023-03-19T08:37:35;100574.00;;;12.05;49.46
12203;BME280;6164;42.178;24.622;2023-03-19T08:40:02;100571.25;;;12.14;49.85
12203;BME280;6164;42.178;24.622;2023-03-19T08:42:29;100562.66;;;12.38;50.14
12203;BME280;6164;42.178;24.622;2023-03-19T08:44:57;100557.19;;;12.65;50.41
12203;BME280;6164;42.178;24.622;2023-03-19T08:47:23;100555.19;;;12.67;50.39
12203;BME280;6164;42.178;24.622;2023-03-19T08:49:50;100578.56;;;12.71;48.94
12203;BME280;6164;42.178;24.622;2023-03-19T08:52:16;100589.59;;;12.59;48.17
12203;BME280;6164;42.178;24.622;2023-03-19T08:54:43;100606.53;;;12.66;48.14
12203;BME280;6164;42.178;24.622;2023-03-19T08:57:10;100635.22;;;12.78;46.48
12203;BME280;6164;42.178;24.622;2023-03-19T08:59:37;100633.81;;;12.92;46.78
12203;BME280;6164;42.178;24.622;2023-03-19T09:02:05;100646.22;;;13.09;46.68
12203;BME280;6164;42.178;24.622;2023-03-19T09:04:32;100677.22;;;13.16;45.16
12203;BME280;6164;42.178;24.622;2023-03-19T09:07:01;100690.03;;;13.21;44.44
12203;BME280;6164;42.178;24.622;2023-03-19T09:09:27;100677.00;;;13.36;45.27
12203;BME280;6164;42.178;24.622;2023-03-19T09:11:54;100690.59;;;13.41;44.91
12203;BME280;6164;42.178;24.622;2023-03-19T09:14:21;100707.06;;;13.52;43.74
12203;BME280;6164;42.178;24.622;2023-03-19T09:16:47;100717.53;;;13.62;43.66
12203;BME280;6164;42.178;24.622;2023-03-19T09:19:15;100723.22;;;13.75;43.79
12203;BME280;6164;42.178;24.622;2023-03-19T09:21:41;100717.06;;;13.66;43.66
12203;BME280;6164;42.178;24.622;2023-03-19T09:24:08;100714.78;;;13.87;44.32
12203;BME280;6164;42.178;24.622;2023-03-19T09:26:35;100693.25;;;13.90;44.35
12203;BME280;6164;42.178;24.622;2023-03-19T09:29:02;100700.72;;;13.95;44.02
12203;BME280;6164;42.178;24.622;2023-03-19T09:31:29;100699.44;;;14.15;44.24
12203;BME280;6164;42.178;24.622;2023-03-19T09:33:55;100675.72;;;14.45;45.71
12203;BME280;6164;42.178;24.622;2023-03-19T09:36:23;100694.31;;;14.53;43.79
12203;BME280;6164;42.178;24.622;2023-03-19T09:38:50;100709.44;;;14.61;42.89
12203;BME280;6164;42.178;24.622;2023-03-19T09:41:19;100718.22;;;14.62;43.11
12203;BME280;6164;42.178;24.622;2023-03-19T09:43:55;100719.22;;;14.52;43.36
12203;BME280;6164;42.178;24.622;2023-03-19T09:46:24;100691.78;;;14.76;43.71
12203;BME280;6164;42.178;24.622;2023-03-19T09:48:53;100687.41;;;14.99;44.03
12203;BME280;6164;42.178;24.622;2023-03-19T09:51:24;100676.56;;;15.25;43.82
12203;BME280;6164;42.178;24.622;2023-03-19T09:53:55;100690.31;;;15.44;43.95
12203;BME280;6164;42.178;24.622;2023-03-19T09:56:23;100696.06;;;15.56;42.72
12203;BME280;6164;42.178;24.622;2023-03-19T09:58:49;100687.19;;;15.71;43.59
12203;BME280;6164;42.178;24.622;2023-03-19T10:01:20;100695.38;;;15.93;43.02
12203;BME280;6164;42.178;24.622;2023-03-19T10:03:51;100691.41;;;16.11;43.17
12203;BME280;6164;42.178;24.622;2023-03-19T10:06:27;100693.63;;;16.30;42.41
12203;BME280;6164;42.178;24.622;2023-03-19T10:08:59;100695.50;;;16.44;42.29
12203;BME280;6164;42.178;24.622;2023-03-19T10:11:32;100695.59;;;16.59;41.86
12203;BME280;6164;42.178;24.622;2023-03-19T10:14:06;100699.94;;;16.74;42.07
12203;BME280;6164;42.178;24.622;2023-03-19T10:16:36;100665.72;;;16.78;43.99
12203;BME280;6164;42.178;24.622;2023-03-19T10:19:03;100673.09;;;16.90;42.24
12203;BME280;6164;42.178;24.622;2023-03-19T10:21:33;100666.25;;;16.59;43.27
12203;BME280;6164;42.178;24.622;2023-03-19T10:24:04;100657.91;;;16.76;42.97
12203;BME280;6164;42.178;24.622;2023-03-19T10:26:32;100667.06;;;16.59;42.29
12203;BME280;6164;42.178;24.622;2023-03-19T10:29:02;100679.84;;;16.41;42.26
12203;BME280;6164;42.178;24.622;2023-03-19T10:31:32;100664.44;;;16.14;42.69
12203;BME280;6164;42.178;24.622;2023-03-19T10:34:06;100638.31;;;16.10;43.63
12203;BME280;6164;42.178;24.622;2023-03-19T10:36:38;100634.66;;;16.11;43.43
12203;BME280;6164;42.178;24.622;2023-03-19T10:39:05;100611.59;;;16.18;44.06
12203;BME280;6164;42.178;24.622;2023-03-19T10:41:41;100606.84;;;16.28;43.87
12203;BME280;6164;42.178;24.622;2023-03-19T10:44:13;100601.47;;;16.36;43.29
12203;BME280;6164;42.178;24.622;2023-03-19T10:46:42;100610.94;;;16.38;42.94
12203;BME280;6164;42.178;24.622;2023-03-19T10:49:12;100594.16;;;16.52;43.51
12203;BME280;6164;42.178;24.622;2023-03-19T10:51:43;100584.03;;;16.48;44.25
12203;BME280;6164;42.178;24.622;2023-03-19T10:54:18;100583.84;;;16.49;42.90
12203;BME280;6164;42.178;24.622;2023-03-19T10:56:45;100573.31;;;16.70;43.26
12203;BME280;6164;42.178;24.622;2023-03-19T10:59:19;100571.09;;;16.74;43.16
12203;BME280;6164;42.178;24.622;2023-03-19T11:01:46;100565.66;;;16.96;43.55
12203;BME280;6164;42.178;24.622;2023-03-19T11:04:13;100570.72;;;17.06;42.59
12203;BME280;6164;42.178;24.622;2023-03-19T11:06:43;100576.50;;;17.09;42.76
12203;BME280;6164;42.178;24.622;2023-03-19T11:09:13;100564.63;;;17.12;42.54
12203;BME280;6164;42.178;24.622;2023-03-19T11:11:44;100545.97;;;17.33;43.44
12203;BME280;6164;42.178;24.622;2023-03-19T11:14:13;100546.97;;;17.47;43.38
12203;BME280;6164;42.178;24.622;2023-03-19T11:16:50;100542.94;;;17.51;42.88
12203;BME280;6164;42.178;24.622;2023-03-19T11:19:20;100568.47;;;17.60;42.26
12203;BME280;6164;42.178;24.622;2023-03-19T11:22:00;100579.59;;;17.63;41.55
12203;BME280;6164;42.178;24.622;2023-03-19T11:24:30;100598.75;;;17.67;41.35
12203;BME280;6164;42.178;24.622;2023-03-19T11:26:57;100580.72;;;17.69;41.88
12203;BME280;6164;42.178;24.622;2023-03-19T11:29:25;100552.41;;;17.95;42.19
12203;BME280;6164;42.178;24.622;2023-03-19T11:31:53;100561.97;;;18.11;41.71
12203;BME280;6164;42.178;24.622;2023-03-19T11:34:26;100555.09;;;18.23;42.08
12203;BME280;6164;42.178;24.622;2023-03-19T11:37:01;100573.41;;;18.26;41.01
12203;BME280;6164;42.178;24.622;2023-03-19T11:39:33;100550.66;;;18.36;42.59
12203;BME280;6164;42.178;24.622;2023-03-19T11:42:05;100536.41;;;18.57;41.67
12203;BME280;6164;42.178;24.622;2023-03-19T11:44:37;100558.53;;;18.72;41.54
12203;BME280;6164;42.178;24.622;2023-03-19T11:47:06;100583.59;;;18.65;40.12
12203;BME280;6164;42.178;24.622;2023-03-19T11:49:41;100572.94;;;18.71;40.78
12203;BME280;6164;42.178;24.622;2023-03-19T11:52:17;100549.00;;;18.97;40.73
12203;BME280;6164;42.178;24.622;2023-03-19T11:54:48;100556.91;;;19.18;40.98
12203;BME280;6164;42.178;24.622;2023-03-19T11:57:22;100556.97;;;19.38;40.90
12203;BME280;6164;42.178;24.622;2023-03-19T11:59:59;100571.66;;;19.55;40.26
12203;BME280;6164;42.178;24.622;2023-03-19T12:02:31;100580.72;;;19.54;39.65
12203;BME280;6164;42.178;24.622;2023-03-19T12:05:13;100582.63;;;19.67;39.99
12203;BME280;6164;42.178;24.622;2023-03-19T12:07:45;100608.28;;;19.41;38.78
12203;BME280;6164;42.178;24.622;2023-03-19T12:10:25;100612.44;;;19.10;39.32
12203;BME280;6164;42.178;24.622;2023-03-19T12:12:54;100611.00;;;19.07;39.13
12203;BME280;6164;42.178;24.622;2023-03-19T12:15:23;100605.69;;;19.14;39.78
12203;BME280;6164;42.178;24.622;2023-03-19T12:17:55;100593.50;;;19.45;39.66
12203;BME280;6164;42.178;24.622;2023-03-19T12:20:29;100585.88;;;19.62;40.05
12203;BME280;6164;42.178;24.622;2023-03-19T12:23:02;100589.84;;;19.79;39.53
12203;BME280;6164;42.178;24.622;2023-03-19T12:28:13;100601.88;;;20.16;38.28
12203;BME280;6164;42.178;24.622;2023-03-19T12:30:43;100628.06;;;20.20;37.73
12203;BME280;6164;42.178;24.622;2023-03-19T12:33:15;100629.53;;;20.36;38.04
12203;BME280;6164;42.178;24.622;2023-03-19T12:35:46;100648.31;;;20.49;37.38
12203;BME280;6164;42.178;24.622;2023-03-19T12:38:19;100649.94;;;20.56;38.37
12203;BME280;6164;42.178;24.622;2023-03-19T12:40:50;100640.44;;;20.67;37.43
12203;BME280;6164;42.178;24.622;2023-03-19T12:43:20;100649.31;;;20.74;37.78
12203;BME280;6164;42.178;24.622;2023-03-19T12:45:50;100640.00;;;20.89;37.22
12203;BME280;6164;42.178;24.622;2023-03-19T12:48:19;100660.84;;;21.07;36.76
12203;BME280;6164;42.178;24.622;2023-03-19T12:50:48;100661.66;;;21.14;36.93
12203;BME280;6164;42.178;24.622;2023-03-19T12:53:18;100667.81;;;21.28;36.83
12203;BME280;6164;42.178;24.622;2023-03-19T12:55:51;100686.38;;;21.42;35.78
12203;BME280;6164;42.178;24.622;2023-03-19T12:58:21;100686.13;;;21.50;36.21